createdAt,value
2022-09-25T00:01:19.664Z,8.82
2022-09-25T00:03:47.351Z,8.82
2022-09-25T00:06:17.571Z,8.79
2022-09-25T00:08:46.286Z,8.76
2022-09-25T00:11:16.633Z,8.70
2022-09-25T00:13:44.955Z,8.67
2022-09-25T00:16:16.563Z,8.66
2022-09-25T00:19:02.109Z,8.63
2022-09-25T00:21:31.379Z,8.59
2022-09-25T00:24:01.512Z,8.61
2022-09-25T00:26:31.234Z,8.57
2022-09-25T00:29:01.408Z,8.62
2022-09-25T00:31:29.889Z,8.57
2022-09-25T00:34:02.547Z,8.61
2022-09-25T00:36:30.773Z,8.63
2022-09-25T00:38:58.552Z,8.65
2022-09-25T00:41:27.863Z,8.67
2022-09-25T00:43:57.458Z,8.63
2022-09-25T00:46:29.050Z,8.60
2022-09-25T00:49:00.662Z,8.62
2022-09-25T00:51:55.111Z,8.60
2022-09-25T00:54:31.502Z,8.60
2022-09-25T00:57:02.204Z,8.56
2022-09-25T00:59:34.250Z,8.55
2022-09-25T01:02:01.867Z,8.54
2022-09-25T01:04:33.746Z,8.52
2022-09-25T01:07:02.246Z,8.48
2022-09-25T01:09:29.943Z,8.43
2022-09-25T01:11:57.432Z,8.40
2022-09-25T01:14:26.829Z,8.39
2022-09-25T01:17:10.277Z,8.33
2022-09-25T01:19:48.429Z,8.34
2022-09-25T01:22:34.596Z,8.32
2022-09-25T01:25:05.062Z,8.30
2022-09-25T01:27:41.242Z,8.25
2022-09-25T01:30:11.269Z,8.21
2022-09-25T01:33:19.197Z,8.21
2022-09-25T01:36:02.871Z,8.20
2022-09-25T01:38:39.958Z,8.19
2022-09-25T01:41:37.836Z,8.13
2022-09-25T01:44:13.886Z,8.08
2022-09-25T01:46:50.042Z,8.05
2022-09-25T01:49:29.319Z,8.03
2022-09-25T01:51:58.603Z,8.03
2022-09-25T01:54:40.028Z,7.95
2022-09-25T01:57:07.487Z,8.00
2022-09-25T01:59:48.201Z,7.96
2022-09-25T02:02:21.187Z,8.00
2022-09-25T02:05:03.724Z,7.96
2022-09-25T02:07:36.234Z,7.90
2022-09-25T02:10:13.746Z,7.86
2022-09-25T02:12:52.319Z,7.86
2022-09-25T02:15:29.975Z,7.84
2022-09-25T02:18:20.330Z,7.82
2022-09-25T02:20:51.984Z,7.83
2022-09-25T02:23:24.570Z,7.82
2022-09-25T02:26:06.579Z,7.80
2022-09-25T02:28:34.421Z,7.75
2022-09-25T02:31:04.879Z,7.74
2022-09-25T02:33:32.403Z,7.70
2022-09-25T02:36:01.798Z,7.70
2022-09-25T02:38:30.141Z,7.68
2022-09-25T02:41:07.314Z,7.68
2022-09-25T02:43:54.581Z,7.69
2022-09-25T02:46:44.280Z,7.68
2022-09-25T02:49:27.494Z,7.66
2022-09-25T02:52:07.106Z,7.69
2022-09-25T02:55:04.148Z,7.66
2022-09-25T02:57:57.988Z,7.60
2022-09-25T03:00:25.534Z,7.61
2022-09-25T03:02:56.510Z,7.61
2022-09-25T03:05:25.618Z,7.60
2022-09-25T03:08:12.461Z,7.58
2022-09-25T03:10:40.056Z,7.62
2022-09-25T03:13:23.268Z,7.58
2022-09-25T03:15:58.968Z,7.59
2022-09-25T03:18:28.446Z,7.62
2022-09-25T03:20:56.216Z,7.62
2022-09-25T03:23:23.918Z,7.58
2022-09-25T03:25:54.728Z,7.59
2022-09-25T03:28:23.352Z,7.59
2022-09-25T03:31:17.013Z,7.60
2022-09-25T03:33:45.714Z,7.62
2022-09-25T03:36:18.431Z,7.67
2022-09-25T03:38:48.240Z,7.66
2022-09-25T03:41:21.307Z,7.65
2022-09-25T03:43:51.963Z,7.65
2022-09-25T03:46:23.201Z,7.65
2022-09-25T03:48:52.108Z,7.63
2022-09-25T03:51:20.233Z,7.65
2022-09-25T03:53:48.815Z,7.62
2022-09-25T03:56:23.084Z,7.55
2022-09-25T03:58:51.718Z,7.56
2022-09-25T04:01:20.040Z,7.54
2022-09-25T04:03:48.173Z,7.52
2022-09-25T04:06:18.937Z,7.61
2022-09-25T04:08:47.870Z,7.65
2022-09-25T04:11:20.510Z,7.66
2022-09-25T04:13:48.583Z,7.67
2022-09-25T04:16:19.414Z,7.66
2022-09-25T04:18:47.087Z,7.66
2022-09-25T04:21:16.286Z,7.74
2022-09-25T04:24:04.089Z,7.73
2022-09-25T04:26:32.303Z,7.73
2022-09-25T04:29:01.418Z,7.71
2022-09-25T04:31:29.983Z,7.72
2022-09-25T04:33:56.591Z,7.67
2022-09-25T04:36:24.100Z,7.72
2022-09-25T04:38:51.833Z,7.68
2022-09-25T04:41:20.107Z,7.64
2022-09-25T04:43:48.355Z,7.62
2022-09-25T04:46:21.833Z,7.55
2022-09-25T04:48:50.613Z,7.53
2022-09-25T04:51:18.130Z,7.52
2022-09-25T04:53:46.694Z,7.48
2022-09-25T04:56:16.334Z,7.44
2022-09-25T04:58:48.677Z,7.44
2022-09-25T05:01:17.739Z,7.40
2022-09-25T05:03:45.336Z,7.38
2022-09-25T05:06:12.951Z,7.34
2022-09-25T05:08:40.423Z,7.32
2022-09-25T05:11:08.187Z,7.30
2022-09-25T05:13:35.770Z,7.26
2022-09-25T05:16:03.318Z,7.23
2022-09-25T05:18:30.829Z,7.21
2022-09-25T05:20:58.334Z,7.17
2022-09-25T05:23:25.886Z,7.26
2022-09-25T05:25:58.050Z,7.31
2022-09-25T05:28:25.787Z,7.26
2022-09-25T05:30:53.473Z,7.31
2022-09-25T05:33:21.116Z,7.31
2022-09-25T05:35:49.500Z,7.33
2022-09-25T05:38:16.956Z,7.33
2022-09-25T05:40:44.551Z,7.25
2022-09-25T05:43:12.482Z,7.24
2022-09-25T05:45:40.027Z,7.21
2022-09-25T05:48:09.463Z,7.20
2022-09-25T05:50:37.555Z,7.21
2022-09-25T05:53:06.347Z,7.25
2022-09-25T05:55:33.912Z,7.31
2022-09-25T05:58:05.366Z,7.36
2022-09-25T06:00:33.743Z,7.35
2022-09-25T06:03:02.566Z,7.37
2022-09-25T06:05:30.322Z,7.38
2022-09-25T06:07:57.837Z,7.45
2022-09-25T06:10:26.768Z,7.47
2022-09-25T06:12:59.672Z,7.47
2022-09-25T06:15:28.252Z,7.48
2022-09-25T06:17:56.998Z,7.52
2022-09-25T06:20:25.349Z,7.56
2022-09-25T06:22:56.884Z,7.58
2022-09-25T06:25:26.468Z,7.64
2022-09-25T06:28:00.233Z,7.74
2022-09-25T06:30:34.088Z,7.82
2022-09-25T06:33:12.666Z,7.88
2022-09-25T06:35:45.239Z,8.00
2022-09-25T06:38:13.767Z,8.08
2022-09-25T06:40:42.020Z,8.22
2022-09-25T06:43:15.363Z,8.37
2022-09-25T06:45:44.222Z,8.48
2022-09-25T06:48:15.742Z,8.71
2022-09-25T06:50:49.658Z,8.84
2022-09-25T06:53:18.982Z,8.97
2022-09-25T06:55:46.902Z,9.14
2022-09-25T06:58:17.563Z,9.30
2022-09-25T07:00:52.505Z,9.46
2022-09-25T07:03:37.524Z,9.58
2022-09-25T07:06:07.114Z,9.80
2022-09-25T07:08:35.150Z,9.95
2022-09-25T07:11:02.716Z,10.10
2022-09-25T07:13:33.451Z,10.24
2022-09-25T07:16:03.010Z,10.38
2022-09-25T07:18:30.942Z,10.43
2022-09-25T07:21:03.893Z,10.53
2022-09-25T07:23:33.417Z,10.64
2022-09-25T07:26:09.292Z,10.69
2022-09-25T07:28:37.967Z,10.86
2022-09-25T07:31:30.042Z,10.98
2022-09-25T07:33:59.880Z,11.07
2022-09-25T07:36:27.470Z,11.21
2022-09-25T07:38:55.222Z,11.34
2022-09-25T07:41:23.881Z,11.45
2022-09-25T07:44:17.630Z,11.65
2022-09-25T07:46:44.684Z,11.71
2022-09-25T07:49:12.887Z,11.72
2022-09-25T07:51:40.460Z,11.99
2022-09-25T07:54:08.271Z,12.10
2022-09-25T07:56:38.032Z,12.28
2022-09-25T07:59:05.638Z,12.49
2022-09-25T08:01:33.330Z,12.50
2022-09-25T08:04:00.819Z,12.74
2022-09-25T08:06:28.329Z,13.14
2022-09-25T08:08:55.773Z,13.51
2022-09-25T08:11:23.448Z,13.90
2022-09-25T08:13:50.947Z,13.88
2022-09-25T08:16:22.588Z,14.02
2022-09-25T08:18:51.331Z,13.99
2022-09-25T08:21:21.267Z,13.85
2022-09-25T08:23:54.305Z,13.72
2022-09-25T08:26:23.157Z,13.93
2022-09-25T08:28:51.816Z,13.92
2022-09-25T08:31:19.707Z,13.97
2022-09-25T08:33:48.607Z,14.16
2022-09-25T08:36:16.881Z,14.24
2022-09-25T08:38:45.192Z,14.43
2022-09-25T08:41:23.750Z,14.79
2022-09-25T08:44:25.298Z,15.03
2022-09-25T08:47:29.918Z,15.47
2022-09-25T08:50:17.510Z,16.09
2022-09-25T08:53:01.068Z,15.92
2022-09-25T08:55:52.694Z,15.90
2022-09-25T08:58:27.059Z,16.27
2022-09-25T09:00:57.074Z,16.54
2022-09-25T09:03:26.173Z,16.72
2022-09-25T09:06:02.228Z,16.95
2022-09-25T09:08:32.032Z,17.11
2022-09-25T09:11:04.327Z,17.80
2022-09-25T09:13:37.972Z,17.27
2022-09-25T09:16:14.844Z,17.09
2022-09-25T09:18:44.017Z,16.74
2022-09-25T09:21:23.730Z,16.54
2022-09-25T09:24:08.468Z,16.23
2022-09-25T09:26:45.085Z,15.77
2022-09-25T09:29:39.237Z,15.57
2022-09-25T09:32:40.841Z,15.52
2022-09-25T09:35:32.808Z,15.19
2022-09-25T09:38:42.361Z,14.94
2022-09-25T09:41:54.749Z,14.84
2022-09-25T09:44:36.037Z,15.74
2022-09-25T09:47:27.877Z,16.18
2022-09-25T09:50:22.925Z,16.88
2022-09-25T09:52:58.382Z,17.16
2022-09-25T09:55:34.433Z,17.22
2022-09-25T09:58:08.583Z,17.42
2022-09-25T10:00:37.131Z,17.84
2022-09-25T10:03:13.128Z,18.27
2022-09-25T10:05:43.184Z,18.01
2022-09-25T10:08:11.466Z,18.08
2022-09-25T10:10:42.688Z,17.82
2022-09-25T10:13:15.225Z,18.17
2022-09-25T10:15:53.413Z,18.25
2022-09-25T10:18:23.757Z,18.12
2022-09-25T10:21:03.465Z,18.33
2022-09-25T10:23:41.821Z,18.64
2022-09-25T10:26:25.827Z,18.88
2022-09-25T10:28:53.757Z,18.78
2022-09-25T10:31:21.995Z,19.13
2022-09-25T10:34:16.426Z,19.29
2022-09-25T10:36:49.371Z,19.45
2022-09-25T10:39:50.419Z,19.57
2022-09-25T10:42:36.684Z,19.33
2022-09-25T10:45:38.642Z,18.99
2022-09-25T10:48:49.406Z,18.30
2022-09-25T10:51:19.947Z,19.16
2022-09-25T10:54:08.292Z,19.45
2022-09-25T10:56:36.062Z,19.74
2022-09-25T10:59:04.466Z,19.82
2022-09-25T11:01:38.070Z,19.17
2022-09-25T11:04:17.525Z,19.11
2022-09-25T11:06:54.097Z,19.15
2022-09-25T11:09:25.614Z,19.41
2022-09-25T11:12:04.881Z,19.64
2022-09-25T11:14:35.093Z,20.31
2022-09-25T11:17:06.859Z,20.65
2022-09-25T11:19:37.347Z,20.76
2022-09-25T11:22:10.883Z,19.65
2022-09-25T11:25:26.736Z,20.03
2022-09-25T11:27:59.538Z,19.40
2022-09-25T11:30:33.459Z,18.88
2022-09-25T11:33:27.051Z,18.50
2022-09-25T11:36:23.376Z,18.62
2022-09-25T11:39:13.978Z,19.04
2022-09-25T11:42:00.304Z,18.80
2022-09-25T11:44:57.960Z,19.55
2022-09-25T11:47:33.242Z,20.06
2022-09-25T11:50:02.781Z,20.11
2022-09-25T11:52:33.497Z,19.68
2022-09-25T11:55:22.019Z,19.83
2022-09-25T11:57:52.872Z,19.68
2022-09-25T12:00:29.417Z,19.64
2022-09-25T12:03:07.865Z,19.34
2022-09-25T12:05:49.280Z,17.98
2022-09-25T12:08:27.159Z,17.39
2022-09-25T12:11:17.242Z,17.13
2022-09-25T12:14:16.627Z,16.90
2022-09-25T12:17:35.958Z,16.60
2022-09-25T12:20:27.487Z,17.53
2022-09-25T12:23:14.324Z,18.54
2022-09-25T12:26:08.089Z,19.72
2022-09-25T12:28:44.237Z,20.20
2022-09-25T12:31:40.899Z,19.50
2022-09-25T12:34:33.097Z,19.63
2022-09-25T12:37:28.673Z,20.59
2022-09-25T12:40:12.859Z,20.31
2022-09-25T12:42:51.746Z,21.01
2022-09-25T12:45:42.128Z,20.93
2022-09-25T12:48:18.928Z,19.70
2022-09-25T12:53:45.633Z,18.16
2022-09-25T12:56:19.087Z,17.60
2022-09-25T12:59:13.685Z,16.96
2022-09-25T13:02:03.179Z,16.81
2022-09-25T13:05:04.602Z,16.62
2022-09-25T13:07:54.220Z,16.04
2022-09-25T13:11:03.465Z,15.86
2022-09-25T13:13:38.842Z,15.96
2022-09-25T13:16:06.808Z,16.16
2022-09-25T13:18:36.689Z,16.30
2022-09-25T13:21:06.923Z,16.09
2022-09-25T13:23:42.309Z,15.83
2022-09-25T13:26:13.972Z,15.71
2022-09-25T13:28:56.535Z,15.60
2022-09-25T13:31:30.684Z,15.74
2022-09-25T13:34:06.215Z,15.63
2022-09-25T13:36:38.738Z,15.53
2022-09-25T13:39:35.733Z,15.52
2022-09-25T13:42:06.375Z,15.58
2022-09-25T13:44:43.436Z,15.36
2022-09-25T13:47:23.214Z,15.33
2022-09-25T13:50:13.259Z,15.33
2022-09-25T13:53:14.850Z,15.41
2022-09-25T13:56:03.251Z,15.25
2022-09-25T13:58:32.866Z,15.12
2022-09-25T14:01:19.780Z,14.95
2022-09-25T14:03:49.973Z,14.87
2022-09-25T14:06:23.823Z,14.86
2022-09-25T14:08:55.174Z,14.96
2022-09-25T14:11:31.410Z,15.02
2022-09-25T14:14:01.291Z,15.13
2022-09-25T14:16:35.121Z,15.18
2022-09-25T14:19:04.275Z,15.31
2022-09-25T14:21:33.640Z,15.44
2022-09-25T14:24:33.479Z,15.52
2022-09-25T14:27:02.854Z,15.74
2022-09-25T14:29:41.025Z,15.74
2022-09-25T14:32:54.143Z,15.75
2022-09-25T14:35:36.407Z,15.78
2022-09-25T14:38:41.021Z,15.70
2022-09-25T14:41:43.984Z,15.72
2022-09-25T14:44:36.361Z,15.83
2022-09-25T14:47:05.409Z,15.82
2022-09-25T14:49:37.994Z,15.76
2022-09-25T14:52:14.227Z,15.70
2022-09-25T14:54:46.463Z,15.75
2022-09-25T14:57:19.018Z,15.76
2022-09-25T14:59:52.928Z,15.71
2022-09-25T15:02:33.878Z,15.74
2022-09-25T15:05:31.542Z,15.72
2022-09-25T15:08:02.099Z,15.46
2022-09-25T15:10:29.673Z,15.51
2022-09-25T15:13:09.743Z,15.53
2022-09-25T15:15:40.060Z,15.50
2022-09-25T15:18:13.875Z,15.45
2022-09-25T15:20:48.708Z,15.40
2022-09-25T15:23:22.812Z,15.48
2022-09-25T15:25:58.871Z,15.53
2022-09-25T15:28:28.407Z,15.57
2022-09-25T15:31:01.341Z,15.54
2022-09-25T15:33:34.031Z,15.65
2022-09-25T15:36:09.502Z,15.66
2022-09-25T15:38:39.669Z,15.66
2022-09-25T15:41:15.788Z,15.67
2022-09-25T15:43:43.479Z,15.67
2022-09-25T15:46:11.037Z,15.67
2022-09-25T15:48:41.411Z,15.58
2022-09-25T15:51:24.060Z,15.32
2022-09-25T15:54:37.674Z,14.97
2022-09-25T15:57:13.307Z,14.68
2022-09-25T15:59:59.333Z,14.65
2022-09-25T16:02:51.192Z,14.50
2022-09-25T16:05:23.613Z,14.45
2022-09-25T16:07:51.193Z,14.33
2022-09-25T16:10:18.627Z,14.37
2022-09-25T16:12:50.707Z,14.41
2022-09-25T16:15:26.958Z,14.27
2022-09-25T16:18:05.998Z,14.16
2022-09-25T16:20:42.621Z,14.04
2022-09-25T16:23:29.927Z,14.01
2022-09-25T16:25:58.608Z,13.91
2022-09-25T16:28:30.091Z,13.82
2022-09-25T16:31:01.962Z,13.80
2022-09-25T16:33:33.816Z,13.72
2022-09-25T16:36:18.161Z,13.67
2022-09-25T16:39:04.109Z,13.68
2022-09-25T16:41:32.949Z,13.68
2022-09-25T16:44:21.240Z,13.71
2022-09-25T16:46:57.908Z,13.72
2022-09-25T16:49:25.561Z,13.72
2022-09-25T16:51:55.127Z,13.72
2022-09-25T16:54:31.723Z,13.68
2022-09-25T16:57:00.271Z,13.67
2022-09-25T16:59:29.197Z,13.66
2022-09-25T17:02:00.220Z,13.61
2022-09-25T17:04:30.885Z,13.60
2022-09-25T17:06:59.079Z,13.57
2022-09-25T17:09:28.589Z,13.47
2022-09-25T17:12:05.054Z,13.48
2022-09-25T17:14:32.724Z,13.45
2022-09-25T17:17:00.387Z,13.37
2022-09-25T17:19:28.225Z,13.40
2022-09-25T17:21:56.085Z,13.38
2022-09-25T17:24:26.675Z,13.30
2022-09-25T17:26:55.057Z,13.19
2022-09-25T17:29:23.374Z,13.12
2022-09-25T17:31:50.846Z,13.02
2022-09-25T17:34:25.003Z,12.96
2022-09-25T17:36:53.227Z,12.86
2022-09-25T17:39:20.804Z,12.75
2022-09-25T17:41:48.791Z,12.69
2022-09-25T17:44:22.142Z,12.60
2022-09-25T17:46:50.967Z,12.49
2022-09-25T17:49:19.004Z,12.38
2022-09-25T17:51:46.984Z,12.26
2022-09-25T17:54:14.534Z,12.18
2022-09-25T17:56:45.053Z,12.13
2022-09-25T17:59:13.835Z,12.10
2022-09-25T18:01:41.646Z,12.06
2022-09-25T18:04:22.141Z,12.05
2022-09-25T18:06:50.908Z,12.07
2022-09-25T18:09:19.047Z,12.06
2022-09-25T18:11:46.542Z,12.11
2022-09-25T18:14:17.282Z,12.16
2022-09-25T18:16:46.338Z,12.17
2022-09-25T18:19:34.395Z,12.18
2022-09-25T18:22:21.483Z,12.20
2022-09-25T18:24:55.954Z,12.22
2022-09-25T18:27:26.148Z,12.22
2022-09-25T18:29:53.803Z,12.19
2022-09-25T18:32:22.100Z,12.14
2022-09-25T18:34:49.618Z,12.07
2022-09-25T18:37:17.193Z,12.04
2022-09-25T18:39:46.079Z,11.97
2022-09-25T18:42:13.559Z,11.91
2022-09-25T18:44:42.962Z,11.87
2022-09-25T18:47:11.714Z,11.78
2022-09-25T18:49:39.238Z,11.81
2022-09-25T18:52:07.439Z,11.78
2022-09-25T18:54:35.119Z,11.72
2022-09-25T18:57:02.665Z,11.73
2022-09-25T18:59:30.430Z,11.72
2022-09-25T19:01:58.337Z,11.70
2022-09-25T19:04:26.366Z,11.67
2022-09-25T19:06:53.950Z,11.71
2022-09-25T19:09:24.200Z,11.69
2022-09-25T19:11:52.431Z,11.65
2022-09-25T19:14:20.242Z,11.68
2022-09-25T19:16:48.189Z,11.66
2022-09-25T19:19:15.659Z,11.63
2022-09-25T19:21:44.665Z,11.63
2022-09-25T19:24:12.809Z,11.63
2022-09-25T19:26:41.592Z,11.64
2022-09-25T19:29:09.369Z,11.64
2022-09-25T19:31:37.403Z,11.66
2022-09-25T19:34:05.083Z,11.66
2022-09-25T19:36:35.166Z,11.70
2022-09-25T19:39:03.550Z,11.72
2022-09-25T19:41:36.502Z,11.74
2022-09-25T19:44:13.313Z,11.76
2022-09-25T19:46:45.936Z,11.76
2022-09-25T19:49:15.359Z,11.84
2022-09-25T19:51:44.350Z,11.84
2022-09-25T19:54:14.451Z,11.83
2022-09-25T19:56:42.888Z,11.84
2022-09-25T19:59:14.687Z,11.83
2022-09-25T20:01:43.791Z,11.86
2022-09-25T20:04:17.975Z,11.79
2022-09-25T20:06:46.143Z,11.82
2022-09-25T20:09:17.178Z,11.77
2022-09-25T20:11:45.746Z,11.73
2022-09-25T20:14:14.020Z,11.70
2022-09-25T20:16:41.901Z,11.69
2022-09-25T20:19:10.807Z,11.62
2022-09-25T20:21:41.342Z,11.60
2022-09-25T20:24:10.438Z,11.56
2022-09-25T20:26:38.368Z,11.54
2022-09-25T20:29:10.465Z,11.57
2022-09-25T20:31:39.356Z,11.55
2022-09-25T20:34:07.079Z,11.53
2022-09-25T20:36:36.186Z,11.53
2022-09-25T20:39:03.693Z,11.48
2022-09-25T20:41:31.155Z,11.46
2022-09-25T20:43:59.315Z,11.46
2022-09-25T20:46:28.115Z,11.45
2022-09-25T20:48:58.107Z,11.44
2022-09-25T20:51:43.747Z,11.43
2022-09-25T20:54:11.378Z,11.44
2022-09-25T20:56:43.569Z,11.42
2022-09-25T20:59:11.962Z,11.42
2022-09-25T21:01:41.038Z,11.42
2022-09-25T21:04:10.009Z,11.41
2022-09-25T21:06:40.474Z,11.41
2022-09-25T21:09:28.953Z,11.40
2022-09-25T21:11:57.086Z,11.40
2022-09-25T21:14:29.268Z,11.41
2022-09-25T21:16:57.223Z,11.42
2022-09-25T21:19:24.826Z,11.43
2022-09-25T21:21:52.726Z,11.46
2022-09-25T21:24:22.095Z,11.47
2022-09-25T21:26:49.880Z,11.44
2022-09-25T21:29:18.222Z,11.45
2022-09-25T21:31:49.946Z,11.43
2022-09-25T21:34:19.433Z,11.43
2022-09-25T21:36:47.158Z,11.43
2022-09-25T21:39:15.439Z,11.42
2022-09-25T21:41:43.009Z,11.43
2022-09-25T21:44:14.965Z,11.42
2022-09-25T21:46:43.877Z,11.38
2022-09-25T21:49:17.726Z,11.36
2022-09-25T21:51:47.716Z,11.31
2022-09-25T21:54:16.645Z,11.29
2022-09-25T21:56:45.293Z,11.31
2022-09-25T21:59:13.397Z,11.28
2022-09-25T22:01:41.481Z,11.27
2022-09-25T22:04:13.091Z,11.27
2022-09-25T22:06:43.689Z,11.21
2022-09-25T22:09:23.192Z,11.18
2022-09-25T22:11:51.514Z,11.16
2022-09-25T22:14:20.706Z,11.11
2022-09-25T22:16:50.829Z,11.10
2022-09-25T22:19:28.090Z,11.08
2022-09-25T22:21:57.881Z,11.09
2022-09-25T22:24:25.799Z,11.06
2022-09-25T22:26:54.831Z,11.06
2022-09-25T22:29:23.046Z,11.07
2022-09-25T22:31:50.706Z,11.07
2022-09-25T22:34:20.195Z,11.07
2022-09-25T22:36:48.534Z,11.13
2022-09-25T22:39:18.567Z,11.14
2022-09-25T22:41:50.220Z,11.11
2022-09-25T22:44:18.082Z,11.18
2022-09-25T22:46:45.796Z,11.22
2022-09-25T22:49:13.616Z,11.18
2022-09-25T22:51:41.278Z,11.34
2022-09-25T22:54:08.756Z,11.40
2022-09-25T22:56:36.748Z,11.43
2022-09-25T22:59:11.155Z,11.47
2022-09-25T23:01:47.262Z,11.48
2022-09-25T23:04:18.760Z,11.56
2022-09-25T23:06:46.615Z,11.56
2022-09-25T23:09:19.900Z,11.63
2022-09-25T23:11:47.648Z,11.65
2022-09-25T23:14:20.859Z,11.71
2022-09-25T23:16:50.306Z,11.71
2022-09-25T23:19:19.145Z,11.75
2022-09-25T23:21:47.175Z,11.62
2022-09-25T23:24:16.955Z,11.79
2022-09-25T23:26:45.438Z,11.83
2022-09-25T23:29:14.995Z,11.82
2022-09-25T23:31:43.007Z,11.93
2022-09-25T23:34:10.640Z,11.91
2022-09-25T23:36:39.046Z,11.92
2022-09-25T23:39:08.594Z,11.88
2022-09-25T23:41:39.646Z,11.90
2022-09-25T23:44:09.492Z,11.89
2022-09-25T23:46:42.473Z,11.88
2022-09-25T23:49:11.791Z,11.91
2022-09-25T23:51:40.208Z,11.93
2022-09-25T23:54:07.806Z,11.92
2022-09-25T23:56:36.032Z,11.95
2022-09-25T23:59:04.924Z,11.94
